Oshawa Airport
CYOO : now visible

Airfield :











YOU CAN JOIN US ON...

 
LOGIN :

Register | Disclaimer

   EN    FR    IT 

 









Legend :    VFR   Marginal VFR   IFR   Intensive IFR   Very Intensive IFR
Visi :
Ceiling :
>= 8 km
>= 3000ft
5 to 8 km
1000 to 3000 ft
1500m to 5 km
500 to 1000 ft
800 to 1500m
200 to 500 ft
< 800m
< 200 ft
Symbols :   Thunderstorms  Fog  Heavy snow  Heavy precipitations  Wind > 20 kt







- Airport Elevation : 459 ft
- IATA code : YOO


CYOO - Oshawa

CURRENT METAR :
  • 202000Z AUTO 18003KT 9SM FEW160 SCT180 BKN200 21/14 A3015 RMK SLP213 DENSITY ALT 1000FT

EXPIRED METARs :
  • 201900Z AUTO 18007KT 150V230 9SM BKN210 BKN240 22/15 A3017 RMK SLP217 DENSITY ALT 1100FT
  • 201842Z AUTO 19005KT 170V230 7SM FEW210 23/15 A3017 RMK SLP219 DENSITY ALT 1100FT
  • 201834Z AUTO 20006KT 140V210 5SM HZ FEW210 23/14 A3017 RMK SLP220 DENSITY ALT 1100FT
  • 201811Z AUTO 18005KT 6SM HZ BKN230 22/15 A3018 RMK SLP221 DENSITY ALT 1000FT
  • 201732Z AUTO 18005KT 110V200 4SM HZ BKN230 BKN250 23/15 A3018 RMK SLP223 DENSITY ALT 1100FT
  • 201721Z AUTO 16004KT 100V220 3SM HZ FEW230 SCT250 22/15 A3019 RMK SLP224 DENSITY ALT 1000FT

TAF TAF CYOO
Valid from the 20 at 20:00 until the 21 at 08:00 UTC


201938Z 2020/2108 18006KT P6SM SCT200
BECMG 2023/2101 VRB03KT RMK FCST BASED ON AUTO OBS. NXT FCST BY 210200Z
No reported NOTAMs for that airfield.



MET'MAP, your aeronautical weather chart ! - Copyright ORBIFLY December 2007 - Disclaimer

ORBIFLY MET'MAP TEAM :

Programming & Development : Alexandra Zaïnal
Concept & Development : Baudouin d'Aumeries
Co-Development & Prog : Marc-Olivier Méhu
Technical & hardware support : Manuel Goepfert

Contact : metmap@orbifly.com




SOURCES & CREDITS :

   NOAA       Earth
Advisory